sensor_id;sensor_type;location;lat;lon;timestamp;P1;durP1;ratioP1;P2;durP2;ratioP2
19907;SDS011;10116;53.112;7.356;2023-10-31T00:01:28;1.60;;;1.50;;
19907;SDS011;10116;53.112;7.356;2023-10-31T00:03:54;1.53;;;1.47;;
19907;SDS011;10116;53.112;7.356;2023-10-31T00:06:20;1.30;;;1.30;;
19907;SDS011;10116;53.112;7.356;2023-10-31T00:08:45;1.50;;;1.40;;
19907;SDS011;10116;53.112;7.356;2023-10-31T00:11:11;1.60;;;1.50;;
19907;SDS011;10116;53.112;7.356;2023-10-31T00:13:37;1.30;;;1.20;;
19907;SDS011;10116;53.112;7.356;2023-10-31T00:16:03;1.90;;;1.73;;
19907;SDS011;10116;53.112;7.356;2023-10-31T00:18:28;1.33;;;1.30;;
19907;SDS011;10116;53.112;7.356;2023-10-31T00:20:54;1.30;;;1.20;;
19907;SDS011;10116;53.112;7.356;2023-10-31T00:23:20;1.13;;;1.13;;
19907;SDS011;10116;53.112;7.356;2023-10-31T00:25:47;1.20;;;1.10;;
19907;SDS011;10116;53.112;7.356;2023-10-31T00:28:12;1.60;;;1.50;;
19907;SDS011;10116;53.112;7.356;2023-10-31T00:30:38;1.70;;;1.40;;
19907;SDS011;10116;53.112;7.356;2023-10-31T00:33:04;1.40;;;1.40;;
19907;SDS011;10116;53.112;7.356;2023-10-31T00:35:30;1.20;;;1.20;;
19907;SDS011;10116;53.112;7.356;2023-10-31T00:37:55;1.50;;;1.40;;
19907;SDS011;10116;53.112;7.356;2023-10-31T00:40:21;1.53;;;1.30;;
19907;SDS011;10116;53.112;7.356;2023-10-31T00:42:47;1.20;;;1.10;;
19907;SDS011;10116;53.112;7.356;2023-10-31T00:45:12;1.07;;;0.97;;
19907;SDS011;10116;53.112;7.356;2023-10-31T00:47:38;1.03;;;1.03;;
19907;SDS011;10116;53.112;7.356;2023-10-31T00:50:04;1.27;;;1.17;;
19907;SDS011;10116;53.112;7.356;2023-10-31T00:52:30;1.30;;;1.20;;
19907;SDS011;10116;53.112;7.356;2023-10-31T00:54:55;1.33;;;1.23;;
19907;SDS011;10116;53.112;7.356;2023-10-31T00:57:21;1.10;;;1.07;;
19907;SDS011;10116;53.112;7.356;2023-10-31T00:59:46;1.27;;;1.27;;
19907;SDS011;10116;53.112;7.356;2023-10-31T01:02:12;1.00;;;1.00;;
19907;SDS011;10116;53.112;7.356;2023-10-31T01:04:38;1.00;;;1.00;;
19907;SDS011;10116;53.112;7.356;2023-10-31T01:07:04;1.10;;;1.10;;
19907;SDS011;10116;53.112;7.356;2023-10-31T01:09:29;1.40;;;1.30;;
19907;SDS011;10116;53.112;7.356;2023-10-31T01:11:55;1.00;;;1.00;;
19907;SDS011;10116;53.112;7.356;2023-10-31T01:14:21;1.50;;;1.40;;
19907;SDS011;10116;53.112;7.356;2023-10-31T01:16:46;1.17;;;1.13;;
19907;SDS011;10116;53.112;7.356;2023-10-31T01:19:12;1.50;;;1.40;;
19907;SDS011;10116;53.112;7.356;2023-10-31T01:21:37;1.10;;;1.10;;
19907;SDS011;10116;53.112;7.356;2023-10-31T01:24:03;1.20;;;1.20;;
19907;SDS011;10116;53.112;7.356;2023-10-31T01:26:29;1.57;;;1.40;;
19907;SDS011;10116;53.112;7.356;2023-10-31T01:28:54;1.50;;;1.40;;
19907;SDS011;10116;53.112;7.356;2023-10-31T01:31:20;1.10;;;1.10;;
19907;SDS011;10116;53.112;7.356;2023-10-31T01:33:46;0.97;;;0.97;;
19907;SDS011;10116;53.112;7.356;2023-10-31T01:36:11;1.30;;;1.20;;
19907;SDS011;10116;53.112;7.356;2023-10-31T01:38:37;1.23;;;1.20;;
19907;SDS011;10116;53.112;7.356;2023-10-31T01:41:03;1.10;;;1.10;;
19907;SDS011;10116;53.112;7.356;2023-10-31T01:43:31;1.93;;;1.60;;
19907;SDS011;10116;53.112;7.356;2023-10-31T01:45:58;0.90;;;0.90;;
19907;SDS011;10116;53.112;7.356;2023-10-31T01:48:24;2.20;;;1.13;;
19907;SDS011;10116;53.112;7.356;2023-10-31T01:50:52;1.17;;;1.07;;
19907;SDS011;10116;53.112;7.356;2023-10-31T01:53:18;1.73;;;1.33;;
19907;SDS011;10116;53.112;7.356;2023-10-31T01:55:45;1.10;;;1.00;;
19907;SDS011;10116;53.112;7.356;2023-10-31T01:58:11;1.33;;;1.23;;
19907;SDS011;10116;53.112;7.356;2023-10-31T02:00:40;1.70;;;1.33;;
19907;SDS011;10116;53.112;7.356;2023-10-31T02:03:08;1.83;;;1.33;;
19907;SDS011;10116;53.112;7.356;2023-10-31T02:05:34;0.90;;;0.90;;
19907;SDS011;10116;53.112;7.356;2023-10-31T02:08:03;1.07;;;1.07;;
19907;SDS011;10116;53.112;7.356;2023-10-31T02:10:30;1.37;;;1.30;;
19907;SDS011;10116;53.112;7.356;2023-10-31T02:12:55;0.97;;;0.97;;
19907;SDS011;10116;53.112;7.356;2023-10-31T02:15:21;1.30;;;1.23;;
19907;SDS011;10116;53.112;7.356;2023-10-31T02:17:47;1.10;;;1.00;;
19907;SDS011;10116;53.112;7.356;2023-10-31T02:20:12;1.00;;;1.00;;
19907;SDS011;10116;53.112;7.356;2023-10-31T02:22:38;0.93;;;0.93;;
19907;SDS011;10116;53.112;7.356;2023-10-31T02:25:14;1.27;;;1.03;;
19907;SDS011;10116;53.112;7.356;2023-10-31T02:27:41;1.10;;;0.93;;
19907;SDS011;10116;53.112;7.356;2023-10-31T02:30:07;1.57;;;1.00;;
19907;SDS011;10116;53.112;7.356;2023-10-31T02:32:33;1.20;;;1.20;;
19907;SDS011;10116;53.112;7.356;2023-10-31T02:34:58;1.13;;;1.03;;
19907;SDS011;10116;53.112;7.356;2023-10-31T02:37:24;1.20;;;1.00;;
19907;SDS011;10116;53.112;7.356;2023-10-31T02:39:49;1.20;;;1.10;;
19907;SDS011;10116;53.112;7.356;2023-10-31T02:42:15;5.53;;;1.13;;
19907;SDS011;10116;53.112;7.356;2023-10-31T02:44:40;2.40;;;1.23;;
19907;SDS011;10116;53.112;7.356;2023-10-31T02:47:06;1.30;;;1.20;;
19907;SDS011;10116;53.112;7.356;2023-10-31T02:49:32;0.80;;;0.80;;
19907;SDS011;10116;53.112;7.356;2023-10-31T02:51:57;0.97;;;0.97;;
19907;SDS011;10116;53.112;7.356;2023-10-31T02:54:23;0.83;;;0.83;;
19907;SDS011;10116;53.112;7.356;2023-10-31T02:56:48;1.10;;;1.10;;
19907;SDS011;10116;53.112;7.356;2023-10-31T02:59:14;1.93;;;1.07;;
19907;SDS011;10116;53.112;7.356;2023-10-31T03:01:39;1.07;;;1.07;;
19907;SDS011;10116;53.112;7.356;2023-10-31T03:04:05;1.07;;;0.77;;
19907;SDS011;10116;53.112;7.356;2023-10-31T03:06:30;0.80;;;0.80;;
19907;SDS011;10116;53.112;7.356;2023-10-31T03:08:56;0.90;;;0.83;;
19907;SDS011;10116;53.112;7.356;2023-10-31T03:11:25;1.37;;;1.20;;
19907;SDS011;10116;53.112;7.356;2023-10-31T03:13:51;0.97;;;0.60;;
19907;SDS011;10116;53.112;7.356;2023-10-31T03:16:18;1.00;;;1.00;;
19907;SDS011;10116;53.112;7.356;2023-10-31T03:18:45;0.60;;;0.60;;
19907;SDS011;10116;53.112;7.356;2023-10-31T03:21:11;1.17;;;0.97;;
19907;SDS011;10116;53.112;7.356;2023-10-31T03:23:37;0.70;;;0.70;;
19907;SDS011;10116;53.112;7.356;2023-10-31T03:26:02;1.53;;;0.90;;
19907;SDS011;10116;53.112;7.356;2023-10-31T03:28:28;0.80;;;0.80;;
19907;SDS011;10116;53.112;7.356;2023-10-31T03:30:54;0.70;;;0.70;;
19907;SDS011;10116;53.112;7.356;2023-10-31T03:33:19;0.70;;;0.70;;
19907;SDS011;10116;53.112;7.356;2023-10-31T03:35:45;0.73;;;0.73;;
19907;SDS011;10116;53.112;7.356;2023-10-31T03:38:11;0.50;;;0.50;;
19907;SDS011;10116;53.112;7.356;2023-10-31T03:40:37;0.90;;;0.90;;
19907;SDS011;10116;53.112;7.356;2023-10-31T03:43:02;0.87;;;0.87;;
19907;SDS011;10116;53.112;7.356;2023-10-31T03:45:28;1.07;;;0.87;;
19907;SDS011;10116;53.112;7.356;2023-10-31T03:47:54;0.80;;;0.77;;
19907;SDS011;10116;53.112;7.356;2023-10-31T03:50:20;0.70;;;0.70;;
19907;SDS011;10116;53.112;7.356;2023-10-31T03:52:45;0.70;;;0.70;;
19907;SDS011;10116;53.112;7.356;2023-10-31T03:55:11;0.83;;;0.80;;
19907;SDS011;10116;53.112;7.356;2023-10-31T03:57:37;1.40;;;1.20;;
19907;SDS011;10116;53.112;7.356;2023-10-31T04:00:02;0.80;;;0.60;;
19907;SDS011;10116;53.112;7.356;2023-10-31T04:02:32;0.63;;;0.60;;
19907;SDS011;10116;53.112;7.356;2023-10-31T04:04:57;1.10;;;0.73;;
19907;SDS011;10116;53.112;7.356;2023-10-31T04:07:23;0.93;;;0.90;;
19907;SDS011;10116;53.112;7.356;2023-10-31T04:09:49;0.60;;;0.60;;
19907;SDS011;10116;53.112;7.356;2023-10-31T04:12:15;0.80;;;0.70;;
19907;SDS011;10116;53.112;7.356;2023-10-31T04:14:41;0.73;;;0.70;;
19907;SDS011;10116;53.112;7.356;2023-10-31T04:17:07;0.80;;;0.80;;
19907;SDS011;10116;53.112;7.356;2023-10-31T04:19:33;0.60;;;0.60;;
19907;SDS011;10116;53.112;7.356;2023-10-31T04:21:58;1.17;;;0.80;;
19907;SDS011;10116;53.112;7.356;2023-10-31T04:24:24;1.10;;;0.60;;
19907;SDS011;10116;53.112;7.356;2023-10-31T04:26:49;0.87;;;0.83;;
19907;SDS011;10116;53.112;7.356;2023-10-31T04:29:15;1.33;;;0.90;;
19907;SDS011;10116;53.112;7.356;2023-10-31T04:31:40;0.60;;;0.60;;
19907;SDS011;10116;53.112;7.356;2023-10-31T04:34:06;0.63;;;0.63;;
19907;SDS011;10116;53.112;7.356;2023-10-31T04:36:32;0.67;;;0.67;;
19907;SDS011;10116;53.112;7.356;2023-10-31T04:38:57;1.13;;;0.60;;
19907;SDS011;10116;53.112;7.356;2023-10-31T04:41:23;0.63;;;0.63;;
19907;SDS011;10116;53.112;7.356;2023-10-31T04:43:48;1.33;;;0.60;;
19907;SDS011;10116;53.112;7.356;2023-10-31T04:46:14;0.80;;;0.80;;
19907;SDS011;10116;53.112;7.356;2023-10-31T04:48:40;0.70;;;0.70;;
19907;SDS011;10116;53.112;7.356;2023-10-31T04:51:05;0.97;;;0.83;;
19907;SDS011;10116;53.112;7.356;2023-10-31T04:53:31;0.87;;;0.80;;
19907;SDS011;10116;53.112;7.356;2023-10-31T04:55:58;0.83;;;0.83;;
19907;SDS011;10116;53.112;7.356;2023-10-31T04:58:24;0.97;;;0.80;;
19907;SDS011;10116;53.112;7.356;2023-10-31T05:00:50;0.80;;;0.63;;
19907;SDS011;10116;53.112;7.356;2023-10-31T05:03:15;0.80;;;0.70;;
19907;SDS011;10116;53.112;7.356;2023-10-31T05:05:41;0.80;;;0.80;;
19907;SDS011;10116;53.112;7.356;2023-10-31T05:08:06;0.93;;;0.70;;
19907;SDS011;10116;53.112;7.356;2023-10-31T05:10:32;0.90;;;0.57;;
19907;SDS011;10116;53.112;7.356;2023-10-31T05:12:58;1.03;;;0.90;;
19907;SDS011;10116;53.112;7.356;2023-10-31T05:15:25;1.30;;;0.63;;
19907;SDS011;10116;53.112;7.356;2023-10-31T05:17:51;0.70;;;0.70;;
19907;SDS011;10116;53.112;7.356;2023-10-31T05:20:16;0.60;;;0.60;;
19907;SDS011;10116;53.112;7.356;2023-10-31T05:22:42;0.80;;;0.80;;
19907;SDS011;10116;53.112;7.356;2023-10-31T05:25:07;0.60;;;0.60;;
19907;SDS011;10116;53.112;7.356;2023-10-31T05:27:33;0.67;;;0.60;;
19907;SDS011;10116;53.112;7.356;2023-10-31T05:29:58;0.90;;;0.70;;
19907;SDS011;10116;53.112;7.356;2023-10-31T05:32:24;1.17;;;0.73;;
19907;SDS011;10116;53.112;7.356;2023-10-31T05:34:50;0.70;;;0.67;;
19907;SDS011;10116;53.112;7.356;2023-10-31T05:37:15;0.70;;;0.70;;
19907;SDS011;10116;53.112;7.356;2023-10-31T05:39:41;1.00;;;1.00;;
19907;SDS011;10116;53.112;7.356;2023-10-31T05:42:06;0.60;;;0.60;;
19907;SDS011;10116;53.112;7.356;2023-10-31T05:44:32;0.60;;;0.60;;
19907;SDS011;10116;53.112;7.356;2023-10-31T05:46:57;0.57;;;0.47;;
19907;SDS011;10116;53.112;7.356;2023-10-31T05:49:23;0.73;;;0.73;;
19907;SDS011;10116;53.112;7.356;2023-10-31T05:51:52;0.63;;;0.60;;
19907;SDS011;10116;53.112;7.356;2023-10-31T05:54:18;1.33;;;0.80;;
19907;SDS011;10116;53.112;7.356;2023-10-31T05:56:44;0.63;;;0.63;;
19907;SDS011;10116;53.112;7.356;2023-10-31T05:59:10;0.80;;;0.60;;
19907;SDS011;10116;53.112;7.356;2023-10-31T06:01:36;1.43;;;0.80;;
19907;SDS011;10116;53.112;7.356;2023-10-31T06:04:02;0.73;;;0.73;;
19907;SDS011;10116;53.112;7.356;2023-10-31T06:06:29;0.67;;;0.67;;
19907;SDS011;10116;53.112;7.356;2023-10-31T06:08:57;0.83;;;0.80;;
19907;SDS011;10116;53.112;7.356;2023-10-31T06:11:23;0.50;;;0.50;;
19907;SDS011;10116;53.112;7.356;2023-10-31T06:13:48;0.83;;;0.67;;
19907;SDS011;10116;53.112;7.356;2023-10-31T06:16:14;1.33;;;1.10;;
19907;SDS011;10116;53.112;7.356;2023-10-31T06:18:40;0.70;;;0.70;;
19907;SDS011;10116;53.112;7.356;2023-10-31T06:21:05;0.60;;;0.60;;
19907;SDS011;10116;53.112;7.356;2023-10-31T06:23:33;0.60;;;0.60;;
19907;SDS011;10116;53.112;7.356;2023-10-31T06:26:00;0.50;;;0.40;;
19907;SDS011;10116;53.112;7.356;2023-10-31T06:28:26;1.13;;;0.70;;
19907;SDS011;10116;53.112;7.356;2023-10-31T06:30:52;0.60;;;0.60;;
19907;SDS011;10116;53.112;7.356;2023-10-31T06:33:17;0.80;;;0.80;;
19907;SDS011;10116;53.112;7.356;2023-10-31T06:35:43;0.83;;;0.83;;
19907;SDS011;10116;53.112;7.356;2023-10-31T06:38:08;0.67;;;0.67;;
19907;SDS011;10116;53.112;7.356;2023-10-31T06:40:34;0.50;;;0.50;;
19907;SDS011;10116;53.112;7.356;2023-10-31T06:43:00;0.40;;;0.40;;
19907;SDS011;10116;53.112;7.356;2023-10-31T06:45:26;0.60;;;0.60;;
19907;SDS011;10116;53.112;7.356;2023-10-31T06:47:52;0.70;;;0.67;;
19907;SDS011;10116;53.112;7.356;2023-10-31T06:50:18;0.70;;;0.70;;
19907;SDS011;10116;53.112;7.356;2023-10-31T06:52:43;1.07;;;0.63;;
19907;SDS011;10116;53.112;7.356;2023-10-31T06:55:09;3.00;;;0.70;;
19907;SDS011;10116;53.112;7.356;2023-10-31T06:57:35;0.40;;;0.40;;
19907;SDS011;10116;53.112;7.356;2023-10-31T07:00:00;0.90;;;0.80;;
19907;SDS011;10116;53.112;7.356;2023-10-31T07:02:26;0.70;;;0.50;;
19907;SDS011;10116;53.112;7.356;2023-10-31T07:04:51;0.90;;;0.60;;
19907;SDS011;10116;53.112;7.356;2023-10-31T07:07:17;0.50;;;0.50;;
19907;SDS011;10116;53.112;7.356;2023-10-31T07:09:43;0.80;;;0.80;;
19907;SDS011;10116;53.112;7.356;2023-10-31T07:12:09;0.63;;;0.63;;
19907;SDS011;10116;53.112;7.356;2023-10-31T07:14:35;0.50;;;0.50;;
19907;SDS011;10116;53.112;7.356;2023-10-31T07:17:00;0.60;;;0.60;;
19907;SDS011;10116;53.112;7.356;2023-10-31T07:19:26;0.90;;;0.70;;
19907;SDS011;10116;53.112;7.356;2023-10-31T07:21:52;1.17;;;0.70;;
19907;SDS011;10116;53.112;7.356;2023-10-31T07:24:17;0.60;;;0.50;;
19907;SDS011;10116;53.112;7.356;2023-10-31T07:26:43;0.70;;;0.60;;
19907;SDS011;10116;53.112;7.356;2023-10-31T07:29:09;0.50;;;0.50;;
19907;SDS011;10116;53.112;7.356;2023-10-31T07:31:34;0.60;;;0.60;;
19907;SDS011;10116;53.112;7.356;2023-10-31T07:34:03;0.90;;;0.50;;
19907;SDS011;10116;53.112;7.356;2023-10-31T07:36:32;0.80;;;0.50;;
19907;SDS011;10116;53.112;7.356;2023-10-31T07:38:59;0.60;;;0.60;;
19907;SDS011;10116;53.112;7.356;2023-10-31T07:41:25;0.60;;;0.60;;
19907;SDS011;10116;53.112;7.356;2023-10-31T07:43:51;0.70;;;0.70;;
19907;SDS011;10116;53.112;7.356;2023-10-31T07:46:17;4.00;;;0.73;;
19907;SDS011;10116;53.112;7.356;2023-10-31T07:48:42;1.00;;;0.73;;
19907;SDS011;10116;53.112;7.356;2023-10-31T07:51:09;1.93;;;0.80;;
19907;SDS011;10116;53.112;7.356;2023-10-31T07:53:34;0.77;;;0.77;;
19907;SDS011;10116;53.112;7.356;2023-10-31T07:56:00;2.53;;;0.77;;
19907;SDS011;10116;53.112;7.356;2023-10-31T07:58:25;5.57;;;0.80;;
19907;SDS011;10116;53.112;7.356;2023-10-31T08:00:51;7.03;;;1.07;;
19907;SDS011;10116;53.112;7.356;2023-10-31T08:03:16;0.90;;;0.80;;
19907;SDS011;10116;53.112;7.356;2023-10-31T08:05:42;1.80;;;1.20;;
19907;SDS011;10116;53.112;7.356;2023-10-31T08:08:08;2.30;;;0.90;;
19907;SDS011;10116;53.112;7.356;2023-10-31T08:10:33;1.97;;;0.97;;
19907;SDS011;10116;53.112;7.356;2023-10-31T08:12:59;3.83;;;0.90;;
19907;SDS011;10116;53.112;7.356;2023-10-31T08:15:25;0.80;;;0.80;;
19907;SDS011;10116;53.112;7.356;2023-10-31T08:17:50;1.57;;;0.50;;
19907;SDS011;10116;53.112;7.356;2023-10-31T08:20:16;4.17;;;0.77;;
19907;SDS011;10116;53.112;7.356;2023-10-31T08:22:42;2.93;;;0.90;;
19907;SDS011;10116;53.112;7.356;2023-10-31T08:25:08;0.90;;;0.70;;
19907;SDS011;10116;53.112;7.356;2023-10-31T08:27:34;7.73;;;0.97;;
19907;SDS011;10116;53.112;7.356;2023-10-31T08:29:59;2.27;;;1.00;;
19907;SDS011;10116;53.112;7.356;2023-10-31T08:32:25;3.83;;;1.20;;
19907;SDS011;10116;53.112;7.356;2023-10-31T08:34:50;3.30;;;1.33;;
19907;SDS011;10116;53.112;7.356;2023-10-31T08:37:16;1.40;;;0.93;;
19907;SDS011;10116;53.112;7.356;2023-10-31T08:39:42;3.80;;;1.03;;
19907;SDS011;10116;53.112;7.356;2023-10-31T08:42:09;3.80;;;0.90;;
19907;SDS011;10116;53.112;7.356;2023-10-31T08:44:34;1.50;;;0.90;;
19907;SDS011;10116;53.112;7.356;2023-10-31T08:47:02;4.30;;;1.07;;
19907;SDS011;10116;53.112;7.356;2023-10-31T08:49:28;10.63;;;1.10;;
19907;SDS011;10116;53.112;7.356;2023-10-31T08:51:54;4.93;;;1.10;;
19907;SDS011;10116;53.112;7.356;2023-10-31T08:54:19;8.37;;;1.40;;
19907;SDS011;10116;53.112;7.356;2023-10-31T08:56:45;11.83;;;1.07;;
19907;SDS011;10116;53.112;7.356;2023-10-31T08:59:11;4.83;;;0.97;;
19907;SDS011;10116;53.112;7.356;2023-10-31T09:01:36;2.43;;;0.90;;
19907;SDS011;10116;53.112;7.356;2023-10-31T09:04:03;3.33;;;1.07;;
19907;SDS011;10116;53.112;7.356;2023-10-31T09:06:28;4.77;;;0.80;;
19907;SDS011;10116;53.112;7.356;2023-10-31T09:08:54;1.43;;;0.60;;
19907;SDS011;10116;53.112;7.356;2023-10-31T09:11:20;1.83;;;1.43;;
19907;SDS011;10116;53.112;7.356;2023-10-31T09:13:45;1.87;;;0.90;;
19907;SDS011;10116;53.112;7.356;2023-10-31T09:16:11;2.77;;;0.70;;
19907;SDS011;10116;53.112;7.356;2023-10-31T09:18:38;0.80;;;0.67;;
19907;SDS011;10116;53.112;7.356;2023-10-31T09:21:04;1.77;;;0.83;;
19907;SDS011;10116;53.112;7.356;2023-10-31T09:23:29;1.07;;;0.70;;
19907;SDS011;10116;53.112;7.356;2023-10-31T09:25:55;2.13;;;0.90;;
19907;SDS011;10116;53.112;7.356;2023-10-31T09:28:21;1.20;;;1.00;;
19907;SDS011;10116;53.112;7.356;2023-10-31T09:30:47;0.60;;;0.60;;
19907;SDS011;10116;53.112;7.356;2023-10-31T09:33:12;0.80;;;0.80;;
19907;SDS011;10116;53.112;7.356;2023-10-31T09:35:38;0.60;;;0.40;;
19907;SDS011;10116;53.112;7.356;2023-10-31T09:38:04;0.90;;;0.67;;
19907;SDS011;10116;53.112;7.356;2023-10-31T09:40:29;0.80;;;0.60;;
19907;SDS011;10116;53.112;7.356;2023-10-31T09:42:55;3.03;;;0.87;;
19907;SDS011;10116;53.112;7.356;2023-10-31T09:45:21;35.23;;;2.00;;
19907;SDS011;10116;53.112;7.356;2023-10-31T09:47:47;3.97;;;0.87;;
19907;SDS011;10116;53.112;7.356;2023-10-31T09:50:12;2.60;;;0.70;;
19907;SDS011;10116;53.112;7.356;2023-10-31T09:52:38;5.73;;;0.80;;
19907;SDS011;10116;53.112;7.356;2023-10-31T09:55:04;3.90;;;0.90;;
19907;SDS011;10116;53.112;7.356;2023-10-31T09:57:31;6.67;;;0.73;;
19907;SDS011;10116;53.112;7.356;2023-10-31T09:59:57;5.13;;;0.90;;
19907;SDS011;10116;53.112;7.356;2023-10-31T10:02:23;5.20;;;1.00;;
19907;SDS011;10116;53.112;7.356;2023-10-31T10:04:50;5.40;;;1.27;;
19907;SDS011;10116;53.112;7.356;2023-10-31T10:07:16;3.20;;;1.30;;
19907;SDS011;10116;53.112;7.356;2023-10-31T10:09:43;4.40;;;1.33;;
19907;SDS011;10116;53.112;7.356;2023-10-31T10:12:11;4.80;;;1.43;;
19907;SDS011;10116;53.112;7.356;2023-10-31T10:14:38;10.20;;;2.23;;
19907;SDS011;10116;53.112;7.356;2023-10-31T10:17:14;3.97;;;1.20;;
19907;SDS011;10116;53.112;7.356;2023-10-31T10:19:45;4.60;;;1.37;;
19907;SDS011;10116;53.112;7.356;2023-10-31T10:22:11;7.27;;;1.50;;
19907;SDS011;10116;53.112;7.356;2023-10-31T10:24:39;6.70;;;1.37;;
19907;SDS011;10116;53.112;7.356;2023-10-31T10:27:06;9.17;;;1.50;;
19907;SDS011;10116;53.112;7.356;2023-10-31T10:29:35;2.00;;;1.13;;
19907;SDS011;10116;53.112;7.356;2023-10-31T10:32:04;4.27;;;1.30;;
19907;SDS011;10116;53.112;7.356;2023-10-31T10:34:33;3.03;;;1.10;;
19907;SDS011;10116;53.112;7.356;2023-10-31T10:36:58;1.80;;;0.87;;
19907;SDS011;10116;53.112;7.356;2023-10-31T10:39:24;1.20;;;0.83;;
19907;SDS011;10116;53.112;7.356;2023-10-31T10:41:53;1.73;;;0.80;;
19907;SDS011;10116;53.112;7.356;2023-10-31T10:44:33;2.17;;;1.00;;
19907;SDS011;10116;53.112;7.356;2023-10-31T10:47:04;7.50;;;1.13;;
19907;SDS011;10116;53.112;7.356;2023-10-31T10:49:34;1.73;;;0.70;;
19907;SDS011;10116;53.112;7.356;2023-10-31T10:52:19;3.40;;;0.90;;
19907;SDS011;10116;53.112;7.356;2023-10-31T10:54:52;6.80;;;0.90;;
19907;SDS011;10116;53.112;7.356;2023-10-31T10:57:32;2.50;;;1.00;;
19907;SDS011;10116;53.112;7.356;2023-10-31T11:00:04;1.70;;;0.93;;
19907;SDS011;10116;53.112;7.356;2023-10-31T11:02:33;2.90;;;0.70;;
19907;SDS011;10116;53.112;7.356;2023-10-31T11:05:02;1.73;;;0.87;;
19907;SDS011;10116;53.112;7.356;2023-10-31T11:07:33;1.00;;;0.70;;
19907;SDS011;10116;53.112;7.356;2023-10-31T11:10:00;2.87;;;0.90;;
19907;SDS011;10116;53.112;7.356;2023-10-31T11:12:30;1.20;;;0.63;;
19907;SDS011;10116;53.112;7.356;2023-10-31T11:14:59;6.20;;;0.87;;
19907;SDS011;10116;53.112;7.356;2023-10-31T11:17:28;1.20;;;0.77;;
19907;SDS011;10116;53.112;7.356;2023-10-31T11:19:59;1.00;;;0.53;;
19907;SDS011;10116;53.112;7.356;2023-10-31T11:22:25;1.43;;;0.77;;
19907;SDS011;10116;53.112;7.356;2023-10-31T11:25:01;2.70;;;0.67;;
19907;SDS011;10116;53.112;7.356;2023-10-31T11:27:27;1.93;;;0.70;;
19907;SDS011;10116;53.112;7.356;2023-10-31T11:29:54;0.87;;;0.70;;
19907;SDS011;10116;53.112;7.356;2023-10-31T11:32:19;4.43;;;0.80;;
19907;SDS011;10116;53.112;7.356;2023-10-31T11:34:47;0.70;;;0.70;;
19907;SDS011;10116;53.112;7.356;2023-10-31T11:40:22;0.57;;;0.50;;
19907;SDS011;10116;53.112;7.356;2023-10-31T11:42:47;1.40;;;0.70;;
19907;SDS011;10116;53.112;7.356;2023-10-31T11:45:29;0.63;;;0.50;;
19907;SDS011;10116;53.112;7.356;2023-10-31T11:47:58;0.80;;;0.53;;
19907;SDS011;10116;53.112;7.356;2023-10-31T11:50:24;0.80;;;0.60;;
19907;SDS011;10116;53.112;7.356;2023-10-31T11:52:59;2.60;;;0.60;;
19907;SDS011;10116;53.112;7.356;2023-10-31T11:55:45;1.23;;;0.60;;
19907;SDS011;10116;53.112;7.356;2023-10-31T12:00:41;1.37;;;0.70;;
19907;SDS011;10116;53.112;7.356;2023-10-31T12:03:06;0.50;;;0.40;;
19907;SDS011;10116;53.112;7.356;2023-10-31T12:05:32;2.10;;;0.60;;
19907;SDS011;10116;53.112;7.356;2023-10-31T12:07:57;2.03;;;0.60;;
19907;SDS011;10116;53.112;7.356;2023-10-31T12:10:26;1.23;;;0.67;;
19907;SDS011;10116;53.112;7.356;2023-10-31T12:12:55;0.80;;;0.63;;
19907;SDS011;10116;53.112;7.356;2023-10-31T12:15:22;0.97;;;0.60;;
19907;SDS011;10116;53.112;7.356;2023-10-31T12:17:48;0.50;;;0.40;;
19907;SDS011;10116;53.112;7.356;2023-10-31T12:20:14;1.27;;;0.60;;
19907;SDS011;10116;53.112;7.356;2023-10-31T12:22:41;1.40;;;0.60;;
19907;SDS011;10116;53.112;7.356;2023-10-31T12:25:07;0.70;;;0.70;;
19907;SDS011;10116;53.112;7.356;2023-10-31T12:27:44;1.37;;;0.70;;
19907;SDS011;10116;53.112;7.356;2023-10-31T12:30:12;5.07;;;0.60;;
19907;SDS011;10116;53.112;7.356;2023-10-31T12:32:41;0.80;;;0.50;;
19907;SDS011;10116;53.112;7.356;2023-10-31T12:35:19;1.43;;;0.60;;
19907;SDS011;10116;53.112;7.356;2023-10-31T12:37:47;1.07;;;0.50;;
19907;SDS011;10116;53.112;7.356;2023-10-31T12:40:17;0.60;;;0.53;;
19907;SDS011;10116;53.112;7.356;2023-10-31T12:42:45;0.50;;;0.50;;
19907;SDS011;10116;53.112;7.356;2023-10-31T12:45:12;1.33;;;0.80;;
19907;SDS011;10116;53.112;7.356;2023-10-31T12:47:37;0.50;;;0.40;;
19907;SDS011;10116;53.112;7.356;2023-10-31T12:50:07;0.50;;;0.40;;
19907;SDS011;10116;53.112;7.356;2023-10-31T12:52:49;0.50;;;0.50;;
19907;SDS011;10116;53.112;7.356;2023-10-31T12:55:16;0.53;;;0.40;;
19907;SDS011;10116;53.112;7.356;2023-10-31T12:57:46;0.93;;;0.50;;
19907;SDS011;10116;53.112;7.356;2023-10-31T13:00:13;0.70;;;0.50;;
19907;SDS011;10116;53.112;7.356;2023-10-31T13:02:40;0.83;;;0.50;;
19907;SDS011;10116;53.112;7.356;2023-10-31T13:05:10;1.43;;;0.50;;
19907;SDS011;10116;53.112;7.356;2023-10-31T13:07:41;1.00;;;0.40;;
19907;SDS011;10116;53.112;7.356;2023-10-31T13:10:17;0.70;;;0.43;;
19907;SDS011;10116;53.112;7.356;2023-10-31T13:12:44;1.00;;;0.60;;
19907;SDS011;10116;53.112;7.356;2023-10-31T13:15:11;0.50;;;0.43;;
19907;SDS011;10116;53.112;7.356;2023-10-31T13:17:41;0.50;;;0.40;;
19907;SDS011;10116;53.112;7.356;2023-10-31T13:20:10;0.57;;;0.40;;
19907;SDS011;10116;53.112;7.356;2023-10-31T13:22:37;0.70;;;0.60;;
19907;SDS011;10116;53.112;7.356;2023-10-31T13:25:04;0.63;;;0.63;;
19907;SDS011;10116;53.112;7.356;2023-10-31T13:27:42;3.43;;;0.50;;
19907;SDS011;10116;53.112;7.356;2023-10-31T13:30:09;0.80;;;0.30;;
19907;SDS011;10116;53.112;7.356;2023-10-31T13:32:36;1.67;;;0.47;;
19907;SDS011;10116;53.112;7.356;2023-10-31T13:35:02;1.43;;;0.53;;
19907;SDS011;10116;53.112;7.356;2023-10-31T13:37:28;2.00;;;0.60;;
19907;SDS011;10116;53.112;7.356;2023-10-31T13:39:54;0.60;;;0.50;;
19907;SDS011;10116;53.112;7.356;2023-10-31T13:42:19;1.27;;;0.67;;
19907;SDS011;10116;53.112;7.356;2023-10-31T13:44:45;1.37;;;0.60;;
19907;SDS011;10116;53.112;7.356;2023-10-31T13:47:11;0.50;;;0.50;;
19907;SDS011;10116;53.112;7.356;2023-10-31T13:49:36;0.90;;;0.50;;
19907;SDS011;10116;53.112;7.356;2023-10-31T13:52:03;1.30;;;0.43;;
19907;SDS011;10116;53.112;7.356;2023-10-31T13:54:29;0.50;;;0.33;;
19907;SDS011;10116;53.112;7.356;2023-10-31T13:56:54;0.93;;;0.40;;
19907;SDS011;10116;53.112;7.356;2023-10-31T13:59:20;0.50;;;0.33;;
19907;SDS011;10116;53.112;7.356;2023-10-31T14:01:46;0.50;;;0.40;;
19907;SDS011;10116;53.112;7.356;2023-10-31T14:04:11;0.53;;;0.50;;
19907;SDS011;10116;53.112;7.356;2023-10-31T14:06:41;0.60;;;0.60;;
19907;SDS011;10116;53.112;7.356;2023-10-31T14:09:08;0.50;;;0.50;;
19907;SDS011;10116;53.112;7.356;2023-10-31T14:11:35;0.70;;;0.40;;
19907;SDS011;10116;53.112;7.356;2023-10-31T14:14:01;0.50;;;0.50;;
19907;SDS011;10116;53.112;7.356;2023-10-31T14:16:40;0.80;;;0.50;;
19907;SDS011;10116;53.112;7.356;2023-10-31T14:19:06;0.80;;;0.50;;
19907;SDS011;10116;53.112;7.356;2023-10-31T14:21:32;0.60;;;0.50;;
19907;SDS011;10116;53.112;7.356;2023-10-31T14:23:59;0.60;;;0.50;;
19907;SDS011;10116;53.112;7.356;2023-10-31T14:26:26;1.57;;;1.17;;
19907;SDS011;10116;53.112;7.356;2023-10-31T14:28:51;0.60;;;0.53;;
19907;SDS011;10116;53.112;7.356;2023-10-31T14:31:17;0.50;;;0.40;;
19907;SDS011;10116;53.112;7.356;2023-10-31T14:33:43;0.60;;;0.40;;
19907;SDS011;10116;53.112;7.356;2023-10-31T14:36:09;0.50;;;0.40;;
19907;SDS011;10116;53.112;7.356;2023-10-31T14:38:37;0.50;;;0.33;;
19907;SDS011;10116;53.112;7.356;2023-10-31T14:41:03;0.40;;;0.40;;
19907;SDS011;10116;53.112;7.356;2023-10-31T14:43:29;0.90;;;0.60;;
19907;SDS011;10116;53.112;7.356;2023-10-31T14:45:55;0.50;;;0.50;;
19907;SDS011;10116;53.112;7.356;2023-10-31T14:48:21;1.03;;;0.50;;
19907;SDS011;10116;53.112;7.356;2023-10-31T14:50:47;0.50;;;0.50;;